sensor_id;sensor_type;location;lat;lon;timestamp;P1;durP1;ratioP1;P2;durP2;ratioP2
78143;SDS011;67394;52.522;13.622;2023-04-07T00:02:11;12.85;;;7.20;;
78143;SDS011;67394;52.522;13.622;2023-04-07T00:04:38;9.48;;;7.95;;
78143;SDS011;67394;52.522;13.622;2023-04-07T00:07:04;11.10;;;7.13;;
78143;SDS011;67394;52.522;13.622;2023-04-07T00:09:31;10.45;;;7.05;;
78143;SDS011;67394;52.522;13.622;2023-04-07T00:11:57;10.52;;;7.05;;
78143;SDS011;67394;52.522;13.622;2023-04-07T00:14:23;9.95;;;6.97;;
78143;SDS011;67394;52.522;13.622;2023-04-07T00:16:50;10.10;;;6.95;;
78143;SDS011;67394;52.522;13.622;2023-04-07T00:19:16;10.43;;;7.43;;
78143;SDS011;67394;52.522;13.622;2023-04-07T00:21:42;9.55;;;6.60;;
78143;SDS011;67394;52.522;13.622;2023-04-07T00:24:09;10.35;;;6.93;;
78143;SDS011;67394;52.522;13.622;2023-04-07T00:26:35;10.25;;;6.75;;
78143;SDS011;67394;52.522;13.622;2023-04-07T00:29:02;8.50;;;6.45;;
78143;SDS011;67394;52.522;13.622;2023-04-07T00:31:28;8.98;;;6.85;;
78143;SDS011;67394;52.522;13.622;2023-04-07T00:33:55;9.43;;;7.00;;
78143;SDS011;67394;52.522;13.622;2023-04-07T00:36:21;10.35;;;6.40;;
78143;SDS011;67394;52.522;13.622;2023-04-07T00:38:48;8.48;;;6.05;;
78143;SDS011;67394;52.522;13.622;2023-04-07T00:41:14;9.70;;;6.65;;
78143;SDS011;67394;52.522;13.622;2023-04-07T00:43:41;10.05;;;7.07;;
78143;SDS011;67394;52.522;13.622;2023-04-07T00:46:07;12.30;;;7.30;;
78143;SDS011;67394;52.522;13.622;2023-04-07T00:48:33;8.70;;;5.78;;
78143;SDS011;67394;52.522;13.622;2023-04-07T00:51:01;9.65;;;6.90;;
78143;SDS011;67394;52.522;13.622;2023-04-07T00:53:29;11.80;;;6.82;;
78143;SDS011;67394;52.522;13.622;2023-04-07T00:55:55;9.88;;;6.95;;
78143;SDS011;67394;52.522;13.622;2023-04-07T00:58:22;11.30;;;6.90;;
78143;SDS011;67394;52.522;13.622;2023-04-07T01:00:49;9.05;;;6.55;;
78143;SDS011;67394;52.522;13.622;2023-04-07T01:03:30;10.13;;;6.30;;
78143;SDS011;67394;52.522;13.622;2023-04-07T01:06:02;11.40;;;6.65;;
78143;SDS011;67394;52.522;13.622;2023-04-07T01:11:42;9.40;;;6.18;;
78143;SDS011;67394;52.522;13.622;2023-04-07T01:14:13;10.57;;;6.70;;
78143;SDS011;67394;52.522;13.622;2023-04-07T01:16:45;9.60;;;6.35;;
78143;SDS011;67394;52.522;13.622;2023-04-07T01:19:25;9.57;;;6.93;;
78143;SDS011;67394;52.522;13.622;2023-04-07T01:21:59;10.95;;;6.63;;
78143;SDS011;67394;52.522;13.622;2023-04-07T01:24:41;9.40;;;6.22;;
78143;SDS011;67394;52.522;13.622;2023-04-07T01:30:53;9.45;;;6.45;;
78143;SDS011;67394;52.522;13.622;2023-04-07T01:33:21;8.15;;;6.15;;
78143;SDS011;67394;52.522;13.622;2023-04-07T01:35:48;9.65;;;6.22;;
78143;SDS011;67394;52.522;13.622;2023-04-07T01:38:16;10.35;;;6.22;;
78143;SDS011;67394;52.522;13.622;2023-04-07T01:40:44;9.82;;;6.30;;
78143;SDS011;67394;52.522;13.622;2023-04-07T01:43:12;9.93;;;6.40;;
78143;SDS011;67394;52.522;13.622;2023-04-07T01:45:40;9.38;;;6.25;;
78143;SDS011;67394;52.522;13.622;2023-04-07T01:48:07;7.60;;;5.57;;
78143;SDS011;67394;52.522;13.622;2023-04-07T01:50:34;9.18;;;6.00;;
78143;SDS011;67394;52.522;13.622;2023-04-07T01:53:01;11.55;;;6.07;;
78143;SDS011;67394;52.522;13.622;2023-04-07T01:55:28;8.27;;;5.38;;
78143;SDS011;67394;52.522;13.622;2023-04-07T01:57:55;10.07;;;6.35;;
78143;SDS011;67394;52.522;13.622;2023-04-07T02:00:21;9.38;;;6.15;;
78143;SDS011;67394;52.522;13.622;2023-04-07T02:02:48;8.38;;;5.93;;
78143;SDS011;67394;52.522;13.622;2023-04-07T02:05:18;8.63;;;5.90;;
78143;SDS011;67394;52.522;13.622;2023-04-07T02:07:51;9.82;;;6.05;;
78143;SDS011;67394;52.522;13.622;2023-04-07T02:10:23;9.27;;;5.82;;
78143;SDS011;67394;52.522;13.622;2023-04-07T02:12:51;8.82;;;6.15;;
78143;SDS011;67394;52.522;13.622;2023-04-07T02:17:47;8.73;;;5.53;;
78143;SDS011;67394;52.522;13.622;2023-04-07T02:20:17;8.68;;;5.70;;
78143;SDS011;67394;52.522;13.622;2023-04-07T02:22:45;12.95;;;6.40;;
78143;SDS011;67394;52.522;13.622;2023-04-07T02:25:22;9.05;;;6.18;;
78143;SDS011;67394;52.522;13.622;2023-04-07T02:30:24;10.52;;;5.82;;
78143;SDS011;67394;52.522;13.622;2023-04-07T02:32:51;11.73;;;6.25;;
78143;SDS011;67394;52.522;13.622;2023-04-07T02:35:18;8.30;;;5.68;;
78143;SDS011;67394;52.522;13.622;2023-04-07T02:37:45;8.82;;;5.55;;
78143;SDS011;67394;52.522;13.622;2023-04-07T02:40:12;12.77;;;6.05;;
78143;SDS011;67394;52.522;13.622;2023-04-07T02:42:39;8.77;;;5.85;;
78143;SDS011;67394;52.522;13.622;2023-04-07T02:45:06;9.73;;;6.55;;
78143;SDS011;67394;52.522;13.622;2023-04-07T02:47:34;9.45;;;6.10;;
78143;SDS011;67394;52.522;13.622;2023-04-07T02:50:01;9.05;;;6.05;;
78143;SDS011;67394;52.522;13.622;2023-04-07T02:52:28;9.27;;;6.15;;
78143;SDS011;67394;52.522;13.622;2023-04-07T02:54:54;10.27;;;6.32;;
78143;SDS011;67394;52.522;13.622;2023-04-07T02:57:21;9.07;;;5.47;;
78143;SDS011;67394;52.522;13.622;2023-04-07T02:59:47;8.65;;;6.65;;
78143;SDS011;67394;52.522;13.622;2023-04-07T03:02:13;9.75;;;6.10;;
78143;SDS011;67394;52.522;13.622;2023-04-07T03:04:40;12.68;;;7.18;;
78143;SDS011;67394;52.522;13.622;2023-04-07T03:07:06;11.45;;;6.38;;
78143;SDS011;67394;52.522;13.622;2023-04-07T03:09:33;10.18;;;6.35;;
78143;SDS011;67394;52.522;13.622;2023-04-07T03:11:59;10.70;;;5.97;;
78143;SDS011;67394;52.522;13.622;2023-04-07T03:14:27;12.45;;;6.78;;
78143;SDS011;67394;52.522;13.622;2023-04-07T03:16:53;10.02;;;6.65;;
78143;SDS011;67394;52.522;13.622;2023-04-07T03:19:19;8.93;;;5.85;;
78143;SDS011;67394;52.522;13.622;2023-04-07T03:21:46;10.02;;;6.28;;
78143;SDS011;67394;52.522;13.622;2023-04-07T03:24:12;10.55;;;6.13;;
78143;SDS011;67394;52.522;13.622;2023-04-07T03:26:38;9.90;;;6.15;;
78143;SDS011;67394;52.522;13.622;2023-04-07T03:29:05;9.13;;;6.38;;
78143;SDS011;67394;52.522;13.622;2023-04-07T03:31:31;9.80;;;5.82;;
78143;SDS011;67394;52.522;13.622;2023-04-07T03:33:57;10.20;;;5.82;;
78143;SDS011;67394;52.522;13.622;2023-04-07T03:36:24;10.93;;;6.45;;
78143;SDS011;67394;52.522;13.622;2023-04-07T03:38:50;12.00;;;6.32;;
78143;SDS011;67394;52.522;13.622;2023-04-07T03:41:16;9.27;;;6.35;;
78143;SDS011;67394;52.522;13.622;2023-04-07T03:43:43;10.48;;;6.57;;
78143;SDS011;67394;52.522;13.622;2023-04-07T03:46:09;9.88;;;6.43;;
78143;SDS011;67394;52.522;13.622;2023-04-07T03:48:35;11.70;;;5.97;;
78143;SDS011;67394;52.522;13.622;2023-04-07T03:51:02;9.25;;;6.43;;
78143;SDS011;67394;52.522;13.622;2023-04-07T03:53:28;9.73;;;6.57;;
78143;SDS011;67394;52.522;13.622;2023-04-07T03:55:54;8.23;;;5.53;;
78143;SDS011;67394;52.522;13.622;2023-04-07T03:58:21;8.60;;;5.85;;
78143;SDS011;67394;52.522;13.622;2023-04-07T04:00:47;10.93;;;6.10;;
78143;SDS011;67394;52.522;13.622;2023-04-07T04:03:14;13.55;;;7.05;;
78143;SDS011;67394;52.522;13.622;2023-04-07T04:05:40;10.30;;;6.28;;
78143;SDS011;67394;52.522;13.622;2023-04-07T04:08:06;10.38;;;6.35;;
78143;SDS011;67394;52.522;13.622;2023-04-07T04:10:33;11.32;;;6.18;;
78143;SDS011;67394;52.522;13.622;2023-04-07T04:12:59;9.98;;;6.13;;
78143;SDS011;67394;52.522;13.622;2023-04-07T04:15:25;10.10;;;5.65;;
78143;SDS011;67394;52.522;13.622;2023-04-07T04:17:52;10.60;;;6.15;;
78143;SDS011;67394;52.522;13.622;2023-04-07T04:20:18;10.73;;;6.07;;
78143;SDS011;67394;52.522;13.622;2023-04-07T04:22:45;12.48;;;6.07;;
78143;SDS011;67394;52.522;13.622;2023-04-07T04:25:11;12.38;;;6.25;;
78143;SDS011;67394;52.522;13.622;2023-04-07T04:27:38;10.95;;;5.63;;
78143;SDS011;67394;52.522;13.622;2023-04-07T04:30:04;10.07;;;5.50;;
78143;SDS011;67394;52.522;13.622;2023-04-07T04:32:31;9.32;;;5.80;;
78143;SDS011;67394;52.522;13.622;2023-04-07T04:34:58;12.95;;;6.78;;
78143;SDS011;67394;52.522;13.622;2023-04-07T04:37:24;10.73;;;6.28;;
78143;SDS011;67394;52.522;13.622;2023-04-07T04:39:50;10.32;;;5.68;;
78143;SDS011;67394;52.522;13.622;2023-04-07T04:42:17;8.50;;;6.38;;
78143;SDS011;67394;52.522;13.622;2023-04-07T04:44:43;10.88;;;5.55;;
78143;SDS011;67394;52.522;13.622;2023-04-07T04:47:09;12.13;;;6.10;;
78143;SDS011;67394;52.522;13.622;2023-04-07T04:49:36;10.60;;;5.30;;
78143;SDS011;67394;52.522;13.622;2023-04-07T04:52:02;9.43;;;5.72;;
78143;SDS011;67394;52.522;13.622;2023-04-07T04:54:28;11.38;;;6.47;;
78143;SDS011;67394;52.522;13.622;2023-04-07T04:56:55;12.25;;;5.93;;
78143;SDS011;67394;52.522;13.622;2023-04-07T04:59:22;11.15;;;6.75;;
78143;SDS011;67394;52.522;13.622;2023-04-07T05:01:48;12.27;;;7.15;;
78143;SDS011;67394;52.522;13.622;2023-04-07T05:04:15;14.13;;;7.55;;
78143;SDS011;67394;52.522;13.622;2023-04-07T05:06:41;13.93;;;6.82;;
78143;SDS011;67394;52.522;13.622;2023-04-07T05:09:09;13.05;;;7.25;;
78143;SDS011;67394;52.522;13.622;2023-04-07T05:11:37;10.15;;;7.15;;
78143;SDS011;67394;52.522;13.622;2023-04-07T05:14:03;11.10;;;7.15;;
78143;SDS011;67394;52.522;13.622;2023-04-07T05:16:29;10.88;;;6.60;;
78143;SDS011;67394;52.522;13.622;2023-04-07T05:18:56;11.18;;;6.45;;
78143;SDS011;67394;52.522;13.622;2023-04-07T05:21:22;10.50;;;7.10;;
78143;SDS011;67394;52.522;13.622;2023-04-07T05:23:48;9.43;;;5.93;;
78143;SDS011;67394;52.522;13.622;2023-04-07T05:26:15;10.65;;;6.22;;
78143;SDS011;67394;52.522;13.622;2023-04-07T05:28:41;10.10;;;6.65;;
78143;SDS011;67394;52.522;13.622;2023-04-07T05:31:08;13.57;;;7.80;;
78143;SDS011;67394;52.522;13.622;2023-04-07T05:33:34;8.85;;;6.10;;
78143;SDS011;67394;52.522;13.622;2023-04-07T05:36:00;10.25;;;7.20;;
78143;SDS011;67394;52.522;13.622;2023-04-07T05:38:27;11.52;;;7.07;;
78143;SDS011;67394;52.522;13.622;2023-04-07T05:40:53;11.48;;;6.72;;
78143;SDS011;67394;52.522;13.622;2023-04-07T05:43:20;11.63;;;6.80;;
78143;SDS011;67394;52.522;13.622;2023-04-07T05:45:46;9.30;;;6.88;;
78143;SDS011;67394;52.522;13.622;2023-04-07T05:48:12;11.82;;;8.23;;
78143;SDS011;67394;52.522;13.622;2023-04-07T05:50:39;11.00;;;7.05;;
78143;SDS011;67394;52.522;13.622;2023-04-07T05:53:05;12.35;;;7.55;;
78143;SDS011;67394;52.522;13.622;2023-04-07T05:55:31;11.70;;;7.32;;
78143;SDS011;67394;52.522;13.622;2023-04-07T05:57:58;13.13;;;7.65;;
78143;SDS011;67394;52.522;13.622;2023-04-07T06:00:25;12.82;;;7.43;;
78143;SDS011;67394;52.522;13.622;2023-04-07T06:02:51;13.68;;;7.68;;
78143;SDS011;67394;52.522;13.622;2023-04-07T06:05:18;13.63;;;7.65;;
78143;SDS011;67394;52.522;13.622;2023-04-07T06:07:44;12.93;;;8.35;;
78143;SDS011;67394;52.522;13.622;2023-04-07T06:10:10;14.38;;;7.72;;
78143;SDS011;67394;52.522;13.622;2023-04-07T06:12:37;13.57;;;7.25;;
78143;SDS011;67394;52.522;13.622;2023-04-07T06:15:03;12.52;;;7.30;;
78143;SDS011;67394;52.522;13.622;2023-04-07T06:17:30;11.85;;;7.57;;
78143;SDS011;67394;52.522;13.622;2023-04-07T06:19:56;12.27;;;7.07;;
78143;SDS011;67394;52.522;13.622;2023-04-07T06:22:22;12.63;;;8.15;;
78143;SDS011;67394;52.522;13.622;2023-04-07T06:24:49;12.68;;;7.53;;
78143;SDS011;67394;52.522;13.622;2023-04-07T06:27:15;12.73;;;7.95;;
78143;SDS011;67394;52.522;13.622;2023-04-07T06:29:41;15.07;;;8.10;;
78143;SDS011;67394;52.522;13.622;2023-04-07T06:32:07;15.60;;;7.70;;
78143;SDS011;67394;52.522;13.622;2023-04-07T06:34:34;12.20;;;7.47;;
78143;SDS011;67394;52.522;13.622;2023-04-07T06:37:00;11.38;;;7.32;;
78143;SDS011;67394;52.522;13.622;2023-04-07T06:39:27;12.90;;;8.13;;
78143;SDS011;67394;52.522;13.622;2023-04-07T06:41:54;12.43;;;7.82;;
78143;SDS011;67394;52.522;13.622;2023-04-07T06:44:21;11.40;;;8.02;;
78143;SDS011;67394;52.522;13.622;2023-04-07T06:46:47;14.32;;;8.07;;
78143;SDS011;67394;52.522;13.622;2023-04-07T06:49:13;12.95;;;8.10;;
78143;SDS011;67394;52.522;13.622;2023-04-07T06:51:40;12.60;;;7.72;;
78143;SDS011;67394;52.522;13.622;2023-04-07T06:54:06;16.42;;;8.63;;
78143;SDS011;67394;52.522;13.622;2023-04-07T06:56:32;10.57;;;7.65;;
78143;SDS011;67394;52.522;13.622;2023-04-07T06:58:58;11.27;;;7.60;;
78143;SDS011;67394;52.522;13.622;2023-04-07T07:01:25;15.00;;;8.60;;
78143;SDS011;67394;52.522;13.622;2023-04-07T07:03:51;14.57;;;8.52;;
78143;SDS011;67394;52.522;13.622;2023-04-07T07:06:18;12.15;;;8.23;;
78143;SDS011;67394;52.522;13.622;2023-04-07T07:08:44;10.98;;;7.90;;
78143;SDS011;67394;52.522;13.622;2023-04-07T07:11:11;12.95;;;7.97;;
78143;SDS011;67394;52.522;13.622;2023-04-07T07:13:37;13.50;;;8.30;;
78143;SDS011;67394;52.522;13.622;2023-04-07T07:16:03;13.05;;;7.55;;
78143;SDS011;67394;52.522;13.622;2023-04-07T07:18:30;12.55;;;7.68;;
78143;SDS011;67394;52.522;13.622;2023-04-07T07:20:57;12.98;;;7.72;;
78143;SDS011;67394;52.522;13.622;2023-04-07T07:23:23;9.68;;;6.82;;
78143;SDS011;67394;52.522;13.622;2023-04-07T07:25:49;11.38;;;7.38;;
78143;SDS011;67394;52.522;13.622;2023-04-07T07:28:16;10.63;;;7.10;;
78143;SDS011;67394;52.522;13.622;2023-04-07T07:30:42;13.00;;;7.88;;
78143;SDS011;67394;52.522;13.622;2023-04-07T07:33:08;11.95;;;7.22;;
78143;SDS011;67394;52.522;13.622;2023-04-07T07:35:35;11.13;;;7.32;;
78143;SDS011;67394;52.522;13.622;2023-04-07T07:38:01;11.60;;;7.32;;
78143;SDS011;67394;52.522;13.622;2023-04-07T07:40:27;13.63;;;7.30;;
78143;SDS011;67394;52.522;13.622;2023-04-07T07:42:54;10.18;;;6.53;;
78143;SDS011;67394;52.522;13.622;2023-04-07T07:45:20;11.55;;;6.70;;
78143;SDS011;67394;52.522;13.622;2023-04-07T07:47:47;9.82;;;6.78;;
78143;SDS011;67394;52.522;13.622;2023-04-07T07:50:13;11.95;;;7.15;;
78143;SDS011;67394;52.522;13.622;2023-04-07T07:52:39;9.80;;;5.80;;
78143;SDS011;67394;52.522;13.622;2023-04-07T07:55:06;10.55;;;6.68;;
78143;SDS011;67394;52.522;13.622;2023-04-07T07:57:33;10.05;;;5.72;;
78143;SDS011;67394;52.522;13.622;2023-04-07T07:59:59;10.10;;;5.90;;
78143;SDS011;67394;52.522;13.622;2023-04-07T08:02:25;8.35;;;5.57;;
78143;SDS011;67394;52.522;13.622;2023-04-07T08:04:52;10.05;;;5.60;;
78143;SDS011;67394;52.522;13.622;2023-04-07T08:07:18;11.48;;;6.38;;
78143;SDS011;67394;52.522;13.622;2023-04-07T08:09:44;10.82;;;6.30;;
78143;SDS011;67394;52.522;13.622;2023-04-07T08:12:11;9.60;;;5.30;;
78143;SDS011;67394;52.522;13.622;2023-04-07T08:14:37;7.28;;;4.65;;
78143;SDS011;67394;52.522;13.622;2023-04-07T08:17:03;7.90;;;4.75;;
78143;SDS011;67394;52.522;13.622;2023-04-07T08:19:30;7.80;;;4.72;;
78143;SDS011;67394;52.522;13.622;2023-04-07T08:21:56;8.68;;;4.95;;
78143;SDS011;67394;52.522;13.622;2023-04-07T08:24:23;9.18;;;5.40;;
78143;SDS011;67394;52.522;13.622;2023-04-07T08:26:49;6.85;;;4.85;;
78143;SDS011;67394;52.522;13.622;2023-04-07T08:29:15;9.15;;;5.65;;
78143;SDS011;67394;52.522;13.622;2023-04-07T08:31:42;7.30;;;4.32;;
78143;SDS011;67394;52.522;13.622;2023-04-07T08:34:08;8.23;;;5.03;;
78143;SDS011;67394;52.522;13.622;2023-04-07T08:36:34;6.65;;;4.22;;
78143;SDS011;67394;52.522;13.622;2023-04-07T08:39:01;8.20;;;5.00;;
78143;SDS011;67394;52.522;13.622;2023-04-07T08:41:39;8.30;;;4.70;;
78143;SDS011;67394;52.522;13.622;2023-04-07T08:44:07;10.80;;;5.43;;
78143;SDS011;67394;52.522;13.622;2023-04-07T08:46:33;8.02;;;4.63;;
78143;SDS011;67394;52.522;13.622;2023-04-07T08:49:03;7.70;;;4.60;;
78143;SDS011;67394;52.522;13.622;2023-04-07T08:51:34;8.02;;;4.55;;
78143;SDS011;67394;52.522;13.622;2023-04-07T08:54:04;8.95;;;4.93;;
78143;SDS011;67394;52.522;13.622;2023-04-07T08:56:35;7.43;;;4.07;;
78143;SDS011;67394;52.522;13.622;2023-04-07T08:59:04;8.20;;;4.97;;
78143;SDS011;67394;52.522;13.622;2023-04-07T09:01:33;6.50;;;4.15;;
78143;SDS011;67394;52.522;13.622;2023-04-07T09:04:04;8.25;;;4.72;;
78143;SDS011;67394;52.522;13.622;2023-04-07T09:06:32;10.00;;;4.93;;
78143;SDS011;67394;52.522;13.622;2023-04-07T09:09:00;7.85;;;4.07;;
78143;SDS011;67394;52.522;13.622;2023-04-07T09:11:27;6.63;;;4.07;;
78143;SDS011;67394;52.522;13.622;2023-04-07T09:13:54;6.15;;;4.13;;
78143;SDS011;67394;52.522;13.622;2023-04-07T09:16:21;8.15;;;4.18;;
78143;SDS011;67394;52.522;13.622;2023-04-07T09:18:48;7.82;;;4.15;;
78143;SDS011;67394;52.522;13.622;2023-04-07T09:21:14;8.45;;;4.03;;
78143;SDS011;67394;52.522;13.622;2023-04-07T09:23:41;5.28;;;3.25;;
78143;SDS011;67394;52.522;13.622;2023-04-07T09:26:18;6.05;;;3.85;;
78143;SDS011;67394;52.522;13.622;2023-04-07T09:28:58;5.47;;;3.35;;
78143;SDS011;67394;52.522;13.622;2023-04-07T09:31:46;6.95;;;3.45;;
78143;SDS011;67394;52.522;13.622;2023-04-07T09:34:26;7.25;;;4.20;;
78143;SDS011;67394;52.522;13.622;2023-04-07T09:36:54;7.00;;;4.25;;
78143;SDS011;67394;52.522;13.622;2023-04-07T09:39:21;7.65;;;3.83;;
78143;SDS011;67394;52.522;13.622;2023-04-07T09:41:48;9.98;;;3.70;;
78143;SDS011;67394;52.522;13.622;2023-04-07T09:44:15;5.72;;;3.53;;
78143;SDS011;67394;52.522;13.622;2023-04-07T09:47:15;5.28;;;3.20;;
78143;SDS011;67394;52.522;13.622;2023-04-07T09:49:47;8.85;;;4.53;;
78143;SDS011;67394;52.522;13.622;2023-04-07T09:52:15;14.80;;;7.05;;
78143;SDS011;67394;52.522;13.622;2023-04-07T09:54:41;4.82;;;3.40;;
78143;SDS011;67394;52.522;13.622;2023-04-07T09:57:08;5.72;;;3.63;;
78143;SDS011;67394;52.522;13.622;2023-04-07T09:59:39;4.95;;;3.33;;
78143;SDS011;67394;52.522;13.622;2023-04-07T10:02:07;5.85;;;3.72;;
78143;SDS011;67394;52.522;13.622;2023-04-07T10:07:00;7.00;;;3.42;;
78143;SDS011;67394;52.522;13.622;2023-04-07T10:09:27;6.40;;;3.40;;
78143;SDS011;67394;52.522;13.622;2023-04-07T10:11:54;5.47;;;3.55;;
78143;SDS011;67394;52.522;13.622;2023-04-07T10:14:24;6.65;;;3.88;;
78143;SDS011;67394;52.522;13.622;2023-04-07T10:16:52;6.90;;;4.25;;
78143;SDS011;67394;52.522;13.622;2023-04-07T10:19:19;5.47;;;3.22;;
78143;SDS011;67394;52.522;13.622;2023-04-07T10:21:46;7.45;;;4.00;;
78143;SDS011;67394;52.522;13.622;2023-04-07T10:24:29;7.10;;;3.58;;
78143;SDS011;67394;52.522;13.622;2023-04-07T10:26:59;5.97;;;3.75;;
78143;SDS011;67394;52.522;13.622;2023-04-07T10:29:31;8.80;;;4.72;;
78143;SDS011;67394;52.522;13.622;2023-04-07T10:32:02;8.07;;;4.25;;
78143;SDS011;67394;52.522;13.622;2023-04-07T10:37:17;6.90;;;3.92;;
78143;SDS011;67394;52.522;13.622;2023-04-07T10:39:43;6.85;;;3.67;;
78143;SDS011;67394;52.522;13.622;2023-04-07T10:45:05;7.85;;;4.68;;
78143;SDS011;67394;52.522;13.622;2023-04-07T10:48:21;8.88;;;4.53;;
78143;SDS011;67394;52.522;13.622;2023-04-07T10:50:27;7.57;;;4.68;;
78143;SDS011;67394;52.522;13.622;2023-04-07T10:58:22;8.80;;;4.75;;
78143;SDS011;67394;52.522;13.622;2023-04-07T11:03:29;8.25;;;5.78;;
78143;SDS011;67394;52.522;13.622;2023-04-07T11:06:04;8.35;;;5.15;;
78143;SDS011;67394;52.522;13.622;2023-04-07T11:08:33;10.30;;;6.35;;
78143;SDS011;67394;52.522;13.622;2023-04-07T11:11:00;13.00;;;7.38;;
78143;SDS011;67394;52.522;13.622;2023-04-07T11:13:26;14.18;;;8.43;;
78143;SDS011;67394;52.522;13.622;2023-04-07T11:15:53;17.65;;;9.75;;
78143;SDS011;67394;52.522;13.622;2023-04-07T11:18:20;17.42;;;10.95;;
78143;SDS011;67394;52.522;13.622;2023-04-07T11:20:53;18.92;;;10.70;;
78143;SDS011;67394;52.522;13.622;2023-04-07T11:23:21;19.55;;;11.75;;
78143;SDS011;67394;52.522;13.622;2023-04-07T11:25:49;22.80;;;13.35;;
78143;SDS011;67394;52.522;13.622;2023-04-07T11:28:17;23.65;;;13.93;;
78143;SDS011;67394;52.522;13.622;2023-04-07T11:30:45;28.60;;;15.52;;
78143;SDS011;67394;52.522;13.622;2023-04-07T11:33:13;28.50;;;16.67;;
78143;SDS011;67394;52.522;13.622;2023-04-07T11:35:47;26.25;;;14.80;;
78143;SDS011;67394;52.522;13.622;2023-04-07T11:38:15;28.33;;;14.75;;
78143;SDS011;67394;52.522;13.622;2023-04-07T11:40:42;28.42;;;13.82;;
78143;SDS011;67394;52.522;13.622;2023-04-07T11:43:16;24.73;;;14.65;;
78143;SDS011;67394;52.522;13.622;2023-04-07T11:45:42;27.95;;;14.60;;
78143;SDS011;67394;52.522;13.622;2023-04-07T11:48:24;27.67;;;14.30;;
78143;SDS011;67394;52.522;13.622;2023-04-07T11:50:51;26.70;;;14.95;;
78143;SDS011;67394;52.522;13.622;2023-04-07T11:53:30;26.40;;;12.43;;
78143;SDS011;67394;52.522;13.622;2023-04-07T11:56:02;26.02;;;14.57;;
78143;SDS011;67394;52.522;13.622;2023-04-07T11:58:30;27.35;;;15.55;;
78143;SDS011;67394;52.522;13.622;2023-04-07T12:00:57;26.10;;;14.52;;
78143;SDS011;67394;52.522;13.622;2023-04-07T12:03:26;28.25;;;14.45;;
78143;SDS011;67394;52.522;13.622;2023-04-07T12:05:53;29.55;;;15.40;;
78143;SDS011;67394;52.522;13.622;2023-04-07T12:08:19;24.55;;;13.65;;
78143;SDS011;67394;52.522;13.622;2023-04-07T12:10:46;21.33;;;11.70;;
78143;SDS011;67394;52.522;13.622;2023-04-07T12:13:12;20.58;;;10.68;;
78143;SDS011;67394;52.522;13.622;2023-04-07T12:15:39;21.67;;;11.60;;
78143;SDS011;67394;52.522;13.622;2023-04-07T12:18:05;19.10;;;11.48;;
78143;SDS011;67394;52.522;13.622;2023-04-07T12:20:32;22.40;;;11.63;;
78143;SDS011;67394;52.522;13.622;2023-04-07T12:22:59;25.05;;;12.25;;
78143;SDS011;67394;52.522;13.622;2023-04-07T12:25:26;24.55;;;12.32;;
78143;SDS011;67394;52.522;13.622;2023-04-07T12:27:52;23.73;;;11.52;;
78143;SDS011;67394;52.522;13.622;2023-04-07T12:30:18;23.10;;;11.50;;
78143;SDS011;67394;52.522;13.622;2023-04-07T12:32:45;26.85;;;12.38;;
78143;SDS011;67394;52.522;13.622;2023-04-07T12:35:11;26.20;;;13.27;;
78143;SDS011;67394;52.522;13.622;2023-04-07T12:37:37;27.02;;;12.48;;
78143;SDS011;67394;52.522;13.622;2023-04-07T12:40:04;26.33;;;12.07;;
78143;SDS011;67394;52.522;13.622;2023-04-07T12:42:31;21.70;;;10.18;;
78143;SDS011;67394;52.522;13.622;2023-04-07T12:44:58;20.70;;;10.73;;
78143;SDS011;67394;52.522;13.622;2023-04-07T12:47:24;23.15;;;10.23;;
78143;SDS011;67394;52.522;13.622;2023-04-07T12:49:50;22.52;;;10.45;;
78143;SDS011;67394;52.522;13.622;2023-04-07T12:52:17;18.80;;;8.40;;
78143;SDS011;67394;52.522;13.622;2023-04-07T12:54:43;15.80;;;6.90;;
78143;SDS011;67394;52.522;13.622;2023-04-07T12:57:09;16.58;;;7.50;;
78143;SDS011;67394;52.522;13.622;2023-04-07T12:59:36;15.82;;;7.80;;
78143;SDS011;67394;52.522;13.622;2023-04-07T13:02:02;10.48;;;6.38;;
78143;SDS011;67394;52.522;13.622;2023-04-07T13:04:29;10.02;;;5.68;;
78143;SDS011;67394;52.522;13.622;2023-04-07T13:06:56;10.52;;;5.75;;
78143;SDS011;67394;52.522;13.622;2023-04-07T13:09:23;11.55;;;6.10;;
78143;SDS011;67394;52.522;13.622;2023-04-07T13:11:50;10.50;;;5.82;;
78143;SDS011;67394;52.522;13.622;2023-04-07T13:14:16;9.13;;;6.13;;
78143;SDS011;67394;52.522;13.622;2023-04-07T13:16:42;11.15;;;5.65;;
78143;SDS011;67394;52.522;13.622;2023-04-07T13:19:09;8.38;;;4.88;;
78143;SDS011;67394;52.522;13.622;2023-04-07T13:21:35;10.10;;;5.63;;
78143;SDS011;67394;52.522;13.622;2023-04-07T13:24:12;8.50;;;4.82;;
78143;SDS011;67394;52.522;13.622;2023-04-07T13:26:39;9.68;;;4.55;;
78143;SDS011;67394;52.522;13.622;2023-04-07T13:29:05;8.57;;;4.78;;
78143;SDS011;67394;52.522;13.622;2023-04-07T13:31:31;8.70;;;4.75;;
78143;SDS011;67394;52.522;13.622;2023-04-07T13:33:58;8.23;;;5.18;;
78143;SDS011;67394;52.522;13.622;2023-04-07T13:36:24;10.23;;;5.00;;
78143;SDS011;67394;52.522;13.622;2023-04-07T13:38:50;8.82;;;5.00;;
78143;SDS011;67394;52.522;13.622;2023-04-07T13:41:17;9.45;;;4.90;;
78143;SDS011;67394;52.522;13.622;2023-04-07T13:43:43;8.55;;;5.07;;
78143;SDS011;67394;52.522;13.622;2023-04-07T13:46:11;10.40;;;7.03;;
78143;SDS011;67394;52.522;13.622;2023-04-07T13:48:52;7.32;;;4.45;;
78143;SDS011;67394;52.522;13.622;2023-04-07T13:51:19;8.20;;;4.82;;
78143;SDS011;67394;52.522;13.622;2023-04-07T13:53:45;9.57;;;6.00;;
78143;SDS011;67394;52.522;13.622;2023-04-07T13:56:12;7.53;;;4.70;;
78143;SDS011;67394;52.522;13.622;2023-04-07T13:58:38;9.18;;;5.22;;
78143;SDS011;67394;52.522;13.622;2023-04-07T14:01:04;8.45;;;5.07;;
78143;SDS011;67394;52.522;13.622;2023-04-07T14:03:31;7.22;;;4.32;;
78143;SDS011;67394;52.522;13.622;2023-04-07T14:05:58;9.55;;;5.88;;
78143;SDS011;67394;52.522;13.622;2023-04-07T14:08:25;8.60;;;5.47;;
78143;SDS011;67394;52.522;13.622;2023-04-07T14:10:52;19.45;;;10.15;;
78143;SDS011;67394;52.522;13.622;2023-04-07T14:13:18;12.13;;;7.25;;
78143;SDS011;67394;52.522;13.622;2023-04-07T14:15:45;12.48;;;7.75;;
78143;SDS011;67394;52.522;13.622;2023-04-07T14:18:12;12.00;;;6.68;;
78143;SDS011;67394;52.522;13.622;2023-04-07T14:20:38;10.70;;;5.82;;
78143;SDS011;67394;52.522;13.622;2023-04-07T14:23:05;8.32;;;5.53;;
78143;SDS011;67394;52.522;13.622;2023-04-07T14:25:31;8.95;;;5.25;;
78143;SDS011;67394;52.522;13.622;2023-04-07T14:27:57;9.45;;;5.65;;
78143;SDS011;67394;52.522;13.622;2023-04-07T14:30:24;9.52;;;5.78;;
78143;SDS011;67394;52.522;13.622;2023-04-07T14:32:50;9.43;;;5.07;;
78143;SDS011;67394;52.522;13.622;2023-04-07T14:35:17;8.65;;;4.95;;
78143;SDS011;67394;52.522;13.622;2023-04-07T14:37:43;11.13;;;5.18;;
78143;SDS011;67394;52.522;13.622;2023-04-07T14:40:09;9.80;;;7.15;;
78143;SDS011;67394;52.522;13.622;2023-04-07T14:42:36;8.45;;;5.18;;
78143;SDS011;67394;52.522;13.622;2023-04-07T14:45:02;9.52;;;5.60;;
78143;SDS011;67394;52.522;13.622;2023-04-07T14:47:29;8.43;;;5.53;;
78143;SDS011;67394;52.522;13.622;2023-04-07T14:49:55;11.80;;;6.75;;
78143;SDS011;67394;52.522;13.622;2023-04-07T14:52:21;10.63;;;5.93;;
78143;SDS011;67394;52.522;13.622;2023-04-07T14:54:48;10.93;;;5.45;;
78143;SDS011;67394;52.522;13.622;2023-04-07T14:57:14;11.88;;;6.45;;